Vollmers Atmospheric Data: 04/18/2019 Summary  Detailed Graphs  Station List

  Temperature     Wind Precipitation Visibility
Timestamp Air Wet
Bulb
Dew-
point
24-hr
Max
24-hr
Min
Relative
Humidity
Atmospheric
Pressure
Avg
Speed
Avg
Dir
Spot
Speed
Spot
Dir
Max
Speed
Max
Dir
  Rate Situation Start End 1 hr 3 hr 6 hr 12 hr 24 hr   Situation
Date Time °F °F °F °F °F % in Hg mph ° mph ° mph ° Y/N in/hr text Date Time Date Time in in in in in mi text
04/18/2019 12:13 AM 59.00 52.16 46.22 81.68 43.52 62.0 Not Reported 4.70 NW 7.83 W 11.18 W No 0.000 No Precipitation 04/16/2019 02:18 AM 04/16/2019 02:23 AM 0.000 0.000 0.000 0.000 0.000 Not Reported Not Reported
04/18/2019 12:28 AM 60.08 51.80 44.60 81.68 43.52 56.0 Not Reported 6.04 W 6.49 W 9.40 W No 0.000 No Precipitation 04/16/2019 02:18 AM 04/16/2019 02:23 AM 0.000 0.000 0.000 0.000 0.000 Not Reported Not Reported
04/18/2019 12:43 AM 60.98 52.16 44.60 81.68 43.52 54.0 Not Reported 9.62 W 8.28 W 9.84 W No 0.000 No Precipitation 04/16/2019 02:18 AM 04/16/2019 02:23 AM 0.000 0.000 0.000 0.000 0.000 Not Reported Not Reported
04/18/2019 12:58 AM 59.00 51.26 44.60 81.68 43.52 58.0 Not Reported 8.95 W 6.49 W 12.08 NW No 0.000 No Precipitation 04/16/2019 02:18 AM 04/16/2019 02:23 AM 0.000 0.000 0.000 0.000 0.000 Not Reported Not Reported
04/18/2019 01:13 AM 57.02 50.72 45.32 81.68 43.52 65.0 Not Reported 5.82 W 4.03 W 11.86 W No 0.000 No Precipitation 04/16/2019 02:18 AM 04/16/2019 02:23 AM 0.000 0.000 0.000 0.000 0.000 Not Reported Not Reported
04/18/2019 01:28 AM 56.12 50.54 45.86 81.68 43.52 68.0 Not Reported 4.92 NW 5.14 NW 8.05 W No 0.000 No Precipitation 04/16/2019 02:18 AM 04/16/2019 02:23 AM 0.000 0.000 0.000 0.000 0.000 Not Reported Not Reported
04/18/2019 01:43 AM 55.58 50.54 46.04 81.68 43.52 70.0 Not Reported 10.74 W 12.53 W 12.08 W No 0.000 No Precipitation 04/16/2019 02:18 AM 04/16/2019 02:23 AM 0.000 0.000 0.000 0.000 0.000 Not Reported Not Reported
04/18/2019 01:58 AM 58.46 51.08 44.60 81.68 43.52 60.0 Not Reported 6.71 NW 5.37 W 12.53 W No 0.000 No Precipitation 04/16/2019 02:18 AM 04/16/2019 02:23 AM 0.000 0.000 0.000 0.000 0.000 Not Reported Not Reported
04/18/2019 02:13 AM 58.64 51.08 44.60 81.68 43.52 59.0 Not Reported 9.84 W 12.53 W 11.63 W No 0.000 No Precipitation 04/16/2019 02:18 AM 04/16/2019 02:23 AM 0.000 0.000 0.000 0.000 0.000 Not Reported Not Reported
04/18/2019 02:28 AM 55.76 50.00 44.96 81.68 43.52 66.0 Not Reported 13.20 W 12.30 W 15.21 W No 0.000 No Precipitation 04/16/2019 02:18 AM 04/16/2019 02:23 AM 0.000 0.000 0.000 0.000 0.000 Not Reported Not Reported
04/18/2019 02:43 AM 56.12 50.00 44.78 81.68 43.52 65.0 Not Reported 7.83 W 10.74 W 10.29 W No 0.000 No Precipitation 04/16/2019 02:18 AM 04/16/2019 02:23 AM 0.000 0.000 0.000 0.000 0.000 Not Reported Not Reported
04/18/2019 02:58 AM 54.68 49.64 45.14 81.68 43.52 70.0 Not Reported 7.61 W 7.38 W 11.18 W No 0.000 No Precipitation 04/16/2019 02:18 AM 04/16/2019 02:23 AM 0.000 0.000 0.000 0.000 0.000 Not Reported Not Reported
04/18/2019 03:13 AM 56.66 50.00 44.06 81.68 43.52 62.0 Not Reported 8.50 W 9.84 W 9.40 W No 0.000 No Precipitation 04/16/2019 02:18 AM 04/16/2019 02:23 AM 0.000 0.000 0.000 0.000 0.000 Not Reported Not Reported
04/18/2019 03:28 AM 53.60 49.28 45.32 81.68 43.52 73.0 Not Reported 8.05 W 8.50 W 10.96 W No 0.000 No Precipitation 04/16/2019 02:18 AM 04/16/2019 02:23 AM 0.000 0.000 0.000 0.000 0.000 Not Reported Not Reported
04/18/2019 03:43 AM 54.68 49.46 44.78 81.68 43.52 69.0 Not Reported 9.17 SW 8.95 W 11.86 NW No 0.000 No Precipitation 04/16/2019 02:18 AM 04/16/2019 02:23 AM 0.000 0.000 0.000 0.000 0.000 Not Reported Not Reported
04/18/2019 03:58 AM 54.68 49.46 44.60 81.68 43.52 68.0 Not Reported 10.07 W 10.07 W 10.29 W No 0.000 No Precipitation 04/16/2019 02:18 AM 04/16/2019 02:23 AM 0.000 0.000 0.000 0.000 0.000 Not Reported Not Reported
04/18/2019 04:13 AM 55.58 49.46 43.88 81.68 43.52 64.0 Not Reported 8.72 W 6.49 SW 10.96 W No 0.000 No Precipitation 04/16/2019 02:18 AM 04/16/2019 02:23 AM 0.000 0.000 0.000 0.000 0.000 Not Reported Not Reported
04/18/2019 04:28 AM 57.74 49.82 42.62 81.68 43.52 57.0 Not Reported 11.63 W 12.53 W 10.29 W No 0.000 No Precipitation 04/16/2019 02:18 AM 04/16/2019 02:23 AM 0.000 0.000 0.000 0.000 0.000 Not Reported Not Reported
04/18/2019 04:43 AM 52.70 48.56 44.78 81.68 43.52 74.0 Not Reported 8.50 W 9.17 W 10.74 W No 0.000 No Precipitation 04/16/2019 02:18 AM 04/16/2019 02:23 AM 0.000 0.000 0.000 0.000 0.000 Not Reported Not Reported
04/18/2019 04:58 AM 54.86 49.28 43.88 81.68 43.52 66.0 Not Reported 9.84 W 9.40 W 12.08 W No 0.000 No Precipitation 04/16/2019 02:18 AM 04/16/2019 02:23 AM 0.000 0.000 0.000 0.000 0.000 Not Reported Not Reported
04/18/2019 05:13 AM 52.34 48.20 44.24 81.68 43.52 73.0 Not Reported 8.72 W 8.28 W 12.08 W No 0.000 No Precipitation 04/16/2019 02:18 AM 04/16/2019 02:23 AM 0.000 0.000 0.000 0.000 0.000 Not Reported Not Reported
04/18/2019 05:28 AM 53.60 48.56 44.06 81.68 43.52 70.0 Not Reported 8.28 W 8.05 W 10.07 W No 0.000 No Precipitation 04/16/2019 02:18 AM 04/16/2019 02:23 AM 0.000 0.000 0.000 0.000 0.000 Not Reported Not Reported
04/18/2019 05:43 AM 54.68 48.74 43.34 81.68 43.52 65.0 Not Reported 7.61 W 7.16 W 11.63 W No 0.000 No Precipitation 04/16/2019 02:18 AM 04/16/2019 02:23 AM 0.000 0.000 0.000 0.000 0.000 Not Reported Not Reported
04/18/2019 05:58 AM 52.88 48.20 43.70 81.68 43.52 70.0 Not Reported 6.26 NW 5.14 NW 10.07 W No 0.000 No Precipitation 04/16/2019 02:18 AM 04/16/2019 02:23 AM 0.000 0.000 0.000 0.000 0.000 Not Reported Not Reported
04/18/2019 06:13 AM 52.70 48.02 43.88 81.68 43.52 72.0 Not Reported 7.16 W 10.74 NW 14.54 NW No 0.000 No Precipitation 04/16/2019 02:18 AM 04/16/2019 02:23 AM 0.000 0.000 0.000 0.000 0.000 Not Reported Not Reported
04/18/2019 06:28 AM 53.60 48.20 43.16 81.68 43.52 67.0 Not Reported 8.72 W 6.93 W 16.33 NW No 0.000 No Precipitation 04/16/2019 02:18 AM 04/16/2019 02:23 AM 0.000 0.000 0.000 0.000 0.000 Not Reported Not Reported
04/18/2019 06:43 AM 53.42 48.56 43.88 81.68 43.52 70.0 Not Reported 9.62 W 9.40 W 14.09 W No 0.000 No Precipitation 04/16/2019 02:18 AM 04/16/2019 02:23 AM 0.000 0.000 0.000 0.000 0.000 Not Reported Not Reported
04/18/2019 06:58 AM 53.24 48.20 43.52 81.68 43.52 69.0 Not Reported 7.61 W 5.37 NW 13.42 W No 0.000 No Precipitation 04/16/2019 02:18 AM 04/16/2019 02:23 AM 0.000 0.000 0.000 0.000 0.000 Not Reported Not Reported
04/18/2019 07:13 AM 54.68 48.74 42.98 81.68 43.52 64.0 Not Reported 7.38 W 5.59 NW 13.65 NW No 0.000 No Precipitation 04/16/2019 02:18 AM 04/16/2019 02:23 AM 0.000 0.000 0.000 0.000 0.000 Not Reported Not Reported
04/18/2019 07:28 AM 52.88 48.02 43.52 81.68 43.52 70.0 Not Reported 9.17 W 7.83 NW 10.96 NW No 0.000 No Precipitation 04/16/2019 02:18 AM 04/16/2019 02:23 AM 0.000 0.000 0.000 0.000 0.000 Not Reported Not Reported
04/18/2019 07:43 AM 51.62 47.66 43.88 81.68 43.52 74.0 Not Reported 7.61 W 4.25 W 10.74 W No 0.000 No Precipitation 04/16/2019 02:18 AM 04/16/2019 02:23 AM 0.000 0.000 0.000 0.000 0.000 Not Reported Not Reported
04/18/2019 07:58 AM 52.88 48.02 43.52 81.68 43.52 70.0 Not Reported 10.74 W 12.97 W 10.74 W No 0.000 No Precipitation 04/16/2019 02:18 AM 04/16/2019 02:23 AM 0.000 0.000 0.000 0.000 0.000 Not Reported Not Reported
04/18/2019 08:13 AM 54.50 48.74 43.52 81.68 43.52 66.0 Not Reported 6.04 W 6.49 W 12.53 W No 0.000 No Precipitation 04/16/2019 02:18 AM 04/16/2019 02:23 AM 0.000 0.000 0.000 0.000 0.000 Not Reported Not Reported
04/18/2019 08:28 AM 55.76 49.28 43.16 81.68 46.04 62.0 Not Reported 5.82 W 5.14 W 9.62 W No 0.000 No Precipitation 04/16/2019 02:18 AM 04/16/2019 02:23 AM 0.000 0.000 0.000 0.000 0.000 Not Reported Not Reported
04/18/2019 08:43 AM 57.38 49.82 42.62 81.68 47.12 57.0 Not Reported 6.71 NW 7.61 NW 8.72 NW No 0.000 No Precipitation 04/16/2019 02:18 AM 04/16/2019 02:23 AM 0.000 0.000 0.000 0.000 0.000 Not Reported Not Reported
04/18/2019 08:58 AM 58.10 50.18 43.70 81.68 48.02 58.0 Not Reported 7.61 W 7.61 W 11.41 NW No 0.000 No Precipitation 04/16/2019 02:18 AM 04/16/2019 02:23 AM 0.000 0.000 0.000 0.000 0.000 Not Reported Not Reported
04/18/2019 09:13 AM 60.26 50.72 42.08 81.68 48.56 50.0 Not Reported 12.30 NW 9.62 W 15.88 W No 0.000 No Precipitation 04/16/2019 02:18 AM 04/16/2019 02:23 AM 0.000 0.000 0.000 0.000 0.000 Not Reported Not Reported
04/18/2019 09:28 AM 61.52 51.26 41.72 81.68 51.44 48.0 Not Reported 7.83 W 10.51 W 13.65 W No 0.000 No Precipitation 04/16/2019 02:18 AM 04/16/2019 02:23 AM 0.000 0.000 0.000 0.000 0.000 Not Reported Not Reported
04/18/2019 09:43 AM 62.78 51.98 42.08 81.68 51.44 46.0 Not Reported 8.95 W 8.28 W 11.86 W No 0.000 No Precipitation 04/16/2019 02:18 AM 04/16/2019 02:23 AM 0.000 0.000 0.000 0.000 0.000 Not Reported Not Reported
04/18/2019 09:58 AM 65.12 53.06 42.62 81.68 51.44 43.0 Not Reported 6.49 W 8.05 W 12.75 NW No 0.000 No Precipitation 04/16/2019 02:18 AM 04/16/2019 02:23 AM 0.000 0.000 0.000 0.000 0.000 Not Reported Not Reported
04/18/2019 10:13 AM 66.20 53.42 41.54 81.68 51.44 40.0 Not Reported 6.71 W 5.37 W 8.50 NW No 0.000 No Precipitation 04/16/2019 02:18 AM 04/16/2019 02:23 AM 0.000 0.000 0.000 0.000 0.000 Not Reported Not Reported
04/18/2019 10:28 AM 68.54 54.32 41.90 81.68 51.44 37.0 Not Reported 5.14 W 4.92 NW 8.50 W No 0.000 No Precipitation 04/16/2019 02:18 AM 04/16/2019 02:23 AM 0.000 0.000 0.000 0.000 0.000 Not Reported Not Reported
04/18/2019 10:43 AM 70.70 55.04 41.72 81.68 51.44 35.0 Not Reported 2.91 W 9.40 W 8.72 W No 0.000 No Precipitation 04/16/2019 02:18 AM 04/16/2019 02:23 AM 0.000 0.000 0.000 0.000 0.000 Not Reported Not Reported
04/18/2019 10:58 AM 71.60 55.58 41.72 81.68 51.44 33.0 Not Reported 4.03 W 3.13 SW 9.40 W No 0.000 No Precipitation 04/16/2019 02:18 AM 04/16/2019 02:23 AM 0.000 0.000 0.000 0.000 0.000 Not Reported Not Reported
04/18/2019 11:13 AM 73.22 56.48 42.44 81.68 51.44 32.0 Not Reported 3.13 NW 6.71 NW 8.95 W No 0.000 No Precipitation 04/16/2019 02:18 AM 04/16/2019 02:23 AM 0.000 0.000 0.000 0.000 0.000 Not Reported Not Reported
04/18/2019 11:28 AM 74.84 56.66 42.26 81.68 51.44 31.0 Not Reported 6.49 W 5.59 W 9.17 NW No 0.000 No Precipitation 04/16/2019 02:18 AM 04/16/2019 02:23 AM 0.000 0.000 0.000 0.000 0.000 Not Reported Not Reported
04/18/2019 11:43 AM 76.28 57.20 41.00 81.68 51.44 28.0 Not Reported 6.71 W 9.17 NW 7.83 W No 0.000 No Precipitation 04/16/2019 02:18 AM 04/16/2019 02:23 AM 0.000 0.000 0.000 0.000 0.000 Not Reported Not Reported
04/18/2019 11:58 AM 77.36 57.74 41.36 81.68 51.44 27.0 Not Reported 5.82 W 6.93 W 9.62 NW No 0.000 No Precipitation 04/16/2019 02:18 AM 04/16/2019 02:23 AM 0.000 0.000 0.000 0.000 0.000 Not Reported Not Reported
04/18/2019 12:13 PM 78.44 58.28 41.72 81.68 51.44 27.0 Not Reported 5.37 NW 5.37 NW 10.74 NW No 0.000 No Precipitation 04/16/2019 02:18 AM 04/16/2019 02:23 AM 0.000 0.000 0.000 0.000 0.000 Not Reported Not Reported
04/18/2019 12:28 PM 79.34 58.10 40.64 81.68 51.44 25.0 Not Reported 4.25 W 4.47 N 8.50 NW No 0.000 No Precipitation 04/16/2019 02:18 AM 04/16/2019 02:23 AM 0.000 0.000 0.000 0.000 0.000 Not Reported Not Reported
04/18/2019 12:43 PM 80.60 58.64 40.46 81.68 51.44 23.0 Not Reported 6.04 NW 5.59 N 7.83 NW No 0.000 No Precipitation 04/16/2019 02:18 AM 04/16/2019 02:23 AM 0.000 0.000 0.000 0.000 0.000 Not Reported Not Reported
04/18/2019 12:58 PM 80.96 59.00 40.82 81.68 51.44 23.0 Not Reported 6.71 NW 5.14 NW 9.17 NW No 0.000 No Precipitation 04/16/2019 02:18 AM 04/16/2019 02:23 AM 0.000 0.000 0.000 0.000 0.000 Not Reported Not Reported
04/18/2019 01:13 PM 81.50 59.18 41.00 82.22 51.44 23.0 Not Reported 4.47 NW 3.36 NW 7.16 NW No 0.000 No Precipitation 04/16/2019 02:18 AM 04/16/2019 02:23 AM 0.000 0.000 0.000 0.000 0.000 Not Reported Not Reported
04/18/2019 01:28 PM 82.22 59.72 41.72 82.76 51.44 23.0 Not Reported 3.58 NW 2.24 NW 6.49 NW No 0.000 No Precipitation 04/16/2019 02:18 AM 04/16/2019 02:23 AM 0.000 0.000 0.000 0.000 0.000 Not Reported Not Reported
04/18/2019 01:43 PM 83.30 59.36 39.92 83.30 51.44 21.0 Not Reported 1.34 N 0.67 NW 4.70 NW No 0.000 No Precipitation 04/16/2019 02:18 AM 04/16/2019 02:23 AM 0.000 0.000 0.000 0.000 0.000 Not Reported Not Reported
04/18/2019 01:58 PM 84.20 60.44 41.72 84.20 51.44 22.0 Not Reported 0.67 SW 1.12 NW 2.91 SE No 0.000 No Precipitation 04/16/2019 02:18 AM 04/16/2019 02:23 AM 0.000 0.000 0.000 0.000 0.000 Not Reported Not Reported
04/18/2019 02:13 PM 84.38 60.26 40.82 85.10 51.44 21.0 Not Reported 2.01 NE 0.45 NW 4.03 NW No 0.000 No Precipitation 04/16/2019 02:18 AM 04/16/2019 02:23 AM 0.000 0.000 0.000 0.000 0.000 Not Reported Not Reported
04/18/2019 02:28 PM 84.20 59.72 39.74 85.28 51.44 20.0 Not Reported 6.04 E 7.61 SE 5.14 S No 0.000 No Precipitation 04/16/2019 02:18 AM 04/16/2019 02:23 AM 0.000 0.000 0.000 0.000 0.000 Not Reported Not Reported
04/18/2019 02:43 PM 85.82 60.44 39.74 85.82 51.44 19.0 Not Reported 2.46 W 1.79 NW 6.49 E No 0.000 No Precipitation 04/16/2019 02:18 AM 04/16/2019 02:23 AM 0.000 0.000 0.000 0.000 0.000 Not Reported Not Reported
04/18/2019 02:58 PM 85.46 60.08 39.38 86.00 51.44 19.0 Not Reported 2.01 SE 2.24 S 8.72 E No 0.000 No Precipitation 04/16/2019 02:18 AM 04/16/2019 02:23 AM 0.000 0.000 0.000 0.000 0.000 Not Reported Not Reported
04/18/2019 03:13 PM 85.46 60.26 39.38 86.90 51.44 19.0 Not Reported 6.93 E 2.68 E 5.14 N No 0.000 No Precipitation 04/16/2019 02:18 AM 04/16/2019 02:23 AM 0.000 0.000 0.000 0.000 0.000 Not Reported Not Reported
04/18/2019 03:28 PM 85.64 60.08 39.02 86.90 51.44 19.0 Not Reported 6.71 SE 6.04 SE 11.41 SE No 0.000 No Precipitation 04/16/2019 02:18 AM 04/16/2019 02:23 AM 0.000 0.000 0.000 0.000 0.000 Not Reported Not Reported
04/18/2019 03:43 PM 85.82 60.44 39.92 86.90 51.44 19.0 Not Reported 6.04 SE 2.91 SE 8.50 E No 0.000 No Precipitation 04/16/2019 02:18 AM 04/16/2019 02:23 AM 0.000 0.000 0.000 0.000 0.000 Not Reported Not Reported
04/18/2019 03:58 PM 85.64 59.72 37.58 86.90 51.44 18.0 Not Reported 7.16 E 6.04 E 9.17 E No 0.000 No Precipitation 04/16/2019 02:18 AM 04/16/2019 02:23 AM 0.000 0.000 0.000 0.000 0.000 Not Reported Not Reported
04/18/2019 04:13 PM 86.90 60.44 38.66 86.90 51.44 18.0 Not Reported 4.25 E 3.13 E 7.38 E No 0.000 No Precipitation 04/16/2019 02:18 AM 04/16/2019 02:23 AM 0.000 0.000 0.000 0.000 0.000 Not Reported Not Reported
04/18/2019 04:28 PM 85.82 59.36 36.86 87.44 51.44 17.0 Not Reported 8.05 E 5.59 E 11.41 E No 0.000 No Precipitation 04/16/2019 02:18 AM 04/16/2019 02:23 AM 0.000 0.000 0.000 0.000 0.000 Not Reported Not Reported
04/18/2019 04:43 PM 85.46 59.18 36.32 87.44 51.44 17.0 Not Reported 7.16 E 3.58 E 11.63 E No 0.000 No Precipitation 04/16/2019 02:18 AM 04/16/2019 02:23 AM 0.000 0.000 0.000 0.000 0.000 Not Reported Not Reported
04/18/2019 04:58 PM 86.90 59.00 33.98 87.44 51.44 15.0 Not Reported 8.50 E 6.49 E 8.95 E No 0.000 No Precipitation 04/16/2019 02:18 AM 04/16/2019 02:23 AM 0.000 0.000 0.000 0.000 0.000 Not Reported Not Reported
04/18/2019 05:13 PM 86.90 58.28 31.28 87.44 51.44 13.0 Not Reported 5.37 SE 4.92 E 9.40 E No 0.000 No Precipitation 04/16/2019 02:18 AM 04/16/2019 02:23 AM 0.000 0.000 0.000 0.000 0.000 Not Reported Not Reported
04/18/2019 05:28 PM 86.72 59.00 33.80 87.44 51.44 15.0 Not Reported 5.14 S 5.14 SE 10.29 E No 0.000 No Precipitation 04/16/2019 02:18 AM 04/16/2019 02:23 AM 0.000 0.000 0.000 0.000 0.000 Not Reported Not Reported
04/18/2019 05:43 PM 86.54 59.00 34.34 87.80 51.44 15.0 Not Reported 5.59 SE 6.49 E 6.49 SE No 0.000 No Precipitation 04/16/2019 02:18 AM 04/16/2019 02:23 AM 0.000 0.000 0.000 0.000 0.000 Not Reported Not Reported
04/18/2019 05:58 PM 86.36 60.08 37.94 87.80 51.44 18.0 Not Reported 4.92 SE 4.47 SE 8.28 SE No 0.000 No Precipitation 04/16/2019 02:18 AM 04/16/2019 02:23 AM 0.000 0.000 0.000 0.000 0.000 Not Reported Not Reported
04/18/2019 06:13 PM 86.54 60.62 39.56 87.80 51.44 19.0 Not Reported 4.25 E 4.92 S 9.40 E No 0.000 No Precipitation 04/16/2019 02:18 AM 04/16/2019 02:23 AM 0.000 0.000 0.000 0.000 0.000 Not Reported Not Reported
04/18/2019 06:28 PM 84.74 59.00 36.50 87.80 51.44 17.0 Not Reported 7.16 SE 7.38 SE 5.82 E No 0.000 No Precipitation 04/16/2019 02:18 AM 04/16/2019 02:23 AM 0.000 0.000 0.000 0.000 0.000 Not Reported Not Reported
04/18/2019 06:43 PM 84.92 59.54 38.12 87.80 51.44 18.0 Not Reported 5.37 SE 7.16 S 6.71 SE No 0.000 No Precipitation 04/16/2019 02:18 AM 04/16/2019 02:23 AM 0.000 0.000 0.000 0.000 0.000 Not Reported Not Reported
04/18/2019 06:58 PM 84.38 60.62 42.08 87.80 51.44 22.0 Not Reported 3.13 SE 2.91 SE 7.38 SE No 0.000 No Precipitation 04/16/2019 02:18 AM 04/16/2019 02:23 AM 0.000 0.000 0.000 0.000 0.000 Not Reported Not Reported
04/18/2019 07:13 PM 83.12 60.26 42.62 87.80 51.44 23.0 Not Reported 7.61 SE 6.49 SE 10.07 E No 0.000 No Precipitation 04/16/2019 02:18 AM 04/16/2019 02:23 AM 0.000 0.000 0.000 0.000 0.000 Not Reported Not Reported
04/18/2019 07:28 PM 82.58 60.44 43.70 87.80 51.44 25.0 Not Reported 4.70 SE 3.13 SE 9.40 SE No 0.000 No Precipitation 04/16/2019 02:18 AM 04/16/2019 02:23 AM 0.000 0.000 0.000 0.000 0.000 Not Reported Not Reported
04/18/2019 07:43 PM 81.68 60.62 44.42 87.80 51.44 27.0 Not Reported 4.25 E 2.91 SE 6.71 SE No 0.000 No Precipitation 04/16/2019 02:18 AM 04/16/2019 02:23 AM 0.000 0.000 0.000 0.000 0.000 Not Reported Not Reported
04/18/2019 07:58 PM 79.52 59.90 44.96 87.80 51.44 29.0 Not Reported 3.80 E 3.36 E 4.92 E No 0.000 No Precipitation 04/16/2019 02:18 AM 04/16/2019 02:23 AM 0.000 0.000 0.000 0.000 0.000 Not Reported Not Reported
04/18/2019 08:13 PM 76.28 58.64 45.32 87.80 51.44 33.0 Not Reported 5.82 E 5.59 E 6.93 E No 0.000 No Precipitation 04/16/2019 02:18 AM 04/16/2019 02:23 AM 0.000 0.000 0.000 0.000 0.000 Not Reported Not Reported
04/18/2019 08:28 PM 74.84 58.28 45.68 87.80 51.44 35.0 Not Reported 1.79 SE 0.67 S 5.82 E No 0.000 No Precipitation 04/16/2019 02:18 AM 04/16/2019 02:23 AM 0.000 0.000 0.000 0.000 0.000 Not Reported Not Reported
04/18/2019 08:43 PM 72.32 58.10 47.12 87.80 51.44 40.0 Not Reported 2.68 NW 1.79 NW 2.68 S No 0.000 No Precipitation 04/16/2019 02:18 AM 04/16/2019 02:23 AM 0.000 0.000 0.000 0.000 0.000 Not Reported Not Reported
04/18/2019 08:58 PM 70.52 57.74 48.20 87.80 51.44 45.0 Not Reported 0.45 NE 0.89 NE 3.36 W No 0.000 No Precipitation 04/16/2019 02:18 AM 04/16/2019 02:23 AM 0.000 0.000 0.000 0.000 0.000 Not Reported Not Reported
04/18/2019 09:13 PM 68.90 57.38 48.56 87.80 51.44 48.0 Not Reported 2.91 W 2.68 SW 2.01 NW No 0.000 No Precipitation 04/16/2019 02:18 AM 04/16/2019 02:23 AM 0.000 0.000 0.000 0.000 0.000 Not Reported Not Reported
04/18/2019 09:28 PM 67.46 56.66 48.56 87.80 51.44 50.0 Not Reported 1.34 N 1.34 N 4.47 SW No 0.000 No Precipitation 04/16/2019 02:18 AM 04/16/2019 02:23 AM 0.000 0.000 0.000 0.000 0.000 Not Reported Not Reported
04/18/2019 09:43 PM 65.66 56.12 49.10 87.80 51.44 55.0 Not Reported 1.12 NW 1.12 NW 1.57 N No 0.000 No Precipitation 04/16/2019 02:18 AM 04/16/2019 02:23 AM 0.000 0.000 0.000 0.000 0.000 Not Reported Not Reported
04/18/2019 09:58 PM 64.40 55.40 48.38 87.80 51.44 56.0 Not Reported 1.79 NW 1.79 NW 1.79 NW No 0.000 No Precipitation 04/16/2019 02:18 AM 04/16/2019 02:23 AM 0.000 0.000 0.000 0.000 0.000 Not Reported Not Reported
04/18/2019 10:13 PM 64.04 55.40 48.56 87.80 51.44 57.0 Not Reported 2.68 W 3.36 W 3.58 NW No 0.000 No Precipitation 04/16/2019 02:18 AM 04/16/2019 02:23 AM 0.000 0.000 0.000 0.000 0.000 Not Reported Not Reported
04/18/2019 10:28 PM 63.86 54.86 47.84 87.80 51.44 56.0 Not Reported 3.13 NW 2.91 W 3.58 W No 0.000 No Precipitation 04/16/2019 02:18 AM 04/16/2019 02:23 AM 0.000 0.000 0.000 0.000 0.000 Not Reported Not Reported
04/18/2019 10:43 PM 62.96 54.68 48.20 87.80 51.44 58.0 Not Reported 2.91 W 3.13 NW 4.25 W No 0.000 No Precipitation 04/16/2019 02:18 AM 04/16/2019 02:23 AM 0.000 0.000 0.000 0.000 0.000 Not Reported Not Reported
04/18/2019 10:58 PM 62.42 54.50 48.20 87.80 51.44 59.0 Not Reported 3.58 W 2.91 W 5.14 W No 0.000 No Precipitation 04/16/2019 02:18 AM 04/16/2019 02:23 AM 0.000 0.000 0.000 0.000 0.000 Not Reported Not Reported
04/18/2019 11:13 PM 62.06 54.32 48.20 87.80 51.44 60.0 Not Reported 3.58 W 4.47 SW 4.47 SW No 0.000 No Precipitation 04/16/2019 02:18 AM 04/16/2019 02:23 AM 0.000 0.000 0.000 0.000 0.000 Not Reported Not Reported
04/18/2019 11:28 PM 60.98 53.78 48.02 87.80 51.44 62.0 Not Reported 4.70 W 4.70 SW 5.37 W No 0.000 No Precipitation 04/16/2019 02:18 AM 04/16/2019 02:23 AM 0.000 0.000 0.000 0.000 0.000 Not Reported Not Reported
04/18/2019 11:43 PM 61.70 54.14 48.20 87.80 51.44 60.0 Not Reported 4.70 W 4.70 W 5.37 NW No 0.000 No Precipitation 04/16/2019 02:18 AM 04/16/2019 02:23 AM 0.000 0.000 0.000 0.000 0.000 Not Reported Not Reported
04/18/2019 11:58 PM 60.44 53.60 48.02 87.80 51.44 63.0 Not Reported 3.80 W 4.03 W 5.37 W No 0.000 No Precipitation 04/16/2019 02:18 AM 04/16/2019 02:23 AM 0.000 0.000 0.000 0.000 0.000 Not Reported Not Reported